Time;durP1;ratioP1;P1;durP2;ratioP2;P2;SDS_P1;SDS_P2;PMS_P1;PMS_P2;Temp;Humidity;BMP_temperature;BMP_pressure;BME280_temperature;BME280_humidity;BME280_pressure;Samples;Min_cycle;Max_cycle;Signal;HPM_P1;HPM_P2
2023/12/14 00:01:25;;;;;;;1.15;1.05;;;11.40;99.90;;;;;;5053463;28;20047;-73
2023/12/14 00:03:51;;;;;;;3.17;2.47;;;11.30;99.90;;;;;;5054593;28;20064;-73
2023/12/14 00:06:17;;;;;;;2.75;2.28;;;11.30;99.90;;;;;;5054613;28;20482;-73
2023/12/14 00:08:42;;;;;;;0.10;0.10;;;11.30;99.90;;;;;;5054841;28;20025;-72
2023/12/14 00:11:10;;;;;;;0.03;0.03;;;11.30;99.90;;;;;;5036581;28;20477;-73
2023/12/14 00:13:39;;;;;;;0.00;0.00;;;11.20;99.90;;;;;;5054267;28;20021;-73
2023/12/14 00:16:06;;;;;;;2.45;1.00;;;11.30;99.90;;;;;;5054350;28;20029;-73
2023/12/14 00:18:32;;;;;;;6.03;0.47;;;11.30;99.90;;;;;;5054427;28;20098;-73
2023/12/14 00:20:58;;;;;;;0.93;0.70;;;11.20;99.90;;;;;;5054254;28;20060;-73
2023/12/14 00:23:24;;;;;;;0.00;0.00;;;11.10;99.90;;;;;;5054318;28;20021;-73
2023/12/14 00:25:50;;;;;;;0.90;0.80;;;11.10;99.90;;;;;;5053880;28;20048;-73
2023/12/14 00:28:17;;;;;;;0.63;0.63;;;11.20;99.90;;;;;;5054415;28;20110;-73
2023/12/14 00:30:43;;;;;;;6.07;2.00;;;11.20;99.90;;;;;;5052947;28;20118;-73
2023/12/14 00:33:08;;;;;;;0.20;0.20;;;11.20;99.90;;;;;;5054196;28;20462;-73
2023/12/14 00:35:34;;;;;;;1.25;0.45;;;11.00;99.90;;;;;;5052374;28;20470;-73
2023/12/14 00:38:00;;;;;;;1.75;1.60;;;10.90;99.90;;;;;;5054098;28;20370;-73
2023/12/14 00:40:26;;;;;;;0.10;0.10;;;10.90;99.90;;;;;;5053713;28;20437;-73
2023/12/14 00:42:52;;;;;;;6.93;3.10;;;11.00;99.90;;;;;;5053937;28;20424;-73
2023/12/14 00:45:18;;;;;;;1.30;1.20;;;10.70;99.90;;;;;;5053487;28;20120;-73
2023/12/14 00:47:44;;;;;;;1.23;0.63;;;10.70;99.90;;;;;;5054069;28;20082;-72
2023/12/14 00:50:10;;;;;;;0.15;0.15;;;10.80;99.90;;;;;;5053490;28;20045;-73
2023/12/14 00:52:36;;;;;;;0.88;0.88;;;10.70;99.90;;;;;;5053606;28;20028;-73
2023/12/14 00:55:02;;;;;;;0.85;0.45;;;10.80;99.90;;;;;;5052296;28;20032;-73
2023/12/14 00:57:27;;;;;;;0.93;0.47;;;10.70;99.90;;;;;;5053567;28;20021;-73
2023/12/14 00:59:54;;;;;;;14.55;4.82;;;10.60;99.90;;;;;;5053662;28;20029;-73
2023/12/14 01:02:19;;;;;;;0.77;0.77;;;10.40;99.90;;;;;;5053304;28;20100;-73
2023/12/14 01:04:45;;;;;;;5.10;1.25;;;10.30;99.90;;;;;;5053124;28;20132;-73
2023/12/14 01:07:11;;;;;;;0.17;0.17;;;10.30;99.90;;;;;;5053513;28;20033;-73
2023/12/14 01:09:37;;;;;;;0.08;0.08;;;10.20;99.90;;;;;;5053393;28;20043;-73
2023/12/14 01:12:03;;;;;;;4.72;3.53;;;10.40;99.90;;;;;;5053478;28;20044;-73
2023/12/14 01:14:29;;;;;;;1.55;1.05;;;10.30;99.90;;;;;;5053097;28;20100;-73
2023/12/14 01:16:55;;;;;;;0.10;0.10;;;10.20;99.90;;;;;;5051891;28;20552;-73
2023/12/14 01:19:21;;;;;;;0.05;0.05;;;10.30;99.90;;;;;;5053029;28;20486;-73
2023/12/14 01:21:46;;;;;;;0.10;0.10;;;10.40;99.90;;;;;;5053055;28;20385;-73
2023/12/14 01:24:12;;;;;;;0.20;0.20;;;10.30;99.90;;;;;;5053212;28;20478;-73
2023/12/14 01:26:38;;;;;;;0.90;0.90;;;10.30;99.90;;;;;;5052985;28;20488;-73
2023/12/14 01:29:04;;;;;;;1.65;1.42;;;10.20;99.90;;;;;;5053224;28;20442;-73
2023/12/14 01:31:30;;;;;;;1.45;1.35;;;10.20;99.90;;;;;;5051538;28;20422;-73
2023/12/14 01:33:55;;;;;;;1.95;1.10;;;10.20;99.90;;;;;;5052824;28;20158;-73
2023/12/14 01:36:22;;;;;;;0.70;0.70;;;10.30;99.90;;;;;;5052857;28;20473;-73
2023/12/14 01:38:49;;;;;;;2.83;1.85;;;10.20;99.90;;;;;;5051880;28;20443;-73
2023/12/14 01:41:15;;;;;;;1.52;1.27;;;10.10;99.90;;;;;;5052420;28;20025;-73
2023/12/14 01:43:41;;;;;;;0.20;0.20;;;10.20;99.90;;;;;;5035370;28;20529;-73
2023/12/14 01:46:07;;;;;;;1.10;1.10;;;10.10;99.90;;;;;;5052952;28;20127;-73
2023/12/14 01:48:33;;;;;;;0.85;0.63;;;10.20;99.90;;;;;;5052404;28;20465;-73
2023/12/14 01:50:58;;;;;;;0.10;0.10;;;10.10;99.90;;;;;;5052694;28;20029;-73
2023/12/14 01:53:25;;;;;;;0.95;0.63;;;10.00;99.90;;;;;;5052528;28;20086;-73
2023/12/14 01:55:55;;;;;;;1.83;0.98;;;9.80;99.90;;;;;;5051519;28;20071;-73
2023/12/14 01:58:20;;;;;;;0.80;0.80;;;9.70;99.90;;;;;;5052616;28;20036;-73
2023/12/14 02:01:30;;;;;;;0.70;0.70;;;9.70;99.90;;;;;;5052549;28;20019;-73
2023/12/14 02:03:56;;;;;;;4.45;1.90;;;9.80;99.90;;;;;;5051539;28;20045;-73
2023/12/14 02:06:22;;;;;;;1.60;1.13;;;9.80;99.90;;;;;;5052655;28;20392;-73
2023/12/14 02:08:47;;;;;;;1.80;1.45;;;9.70;99.90;;;;;;5052363;28;20037;-73
2023/12/14 02:11:14;;;;;;;1.20;1.10;;;9.60;99.90;;;;;;5052728;28;20028;-73
2023/12/14 02:13:39;;;;;;;0.93;0.82;;;9.70;99.90;;;;;;5051026;28;20029;-73
2023/12/14 02:16:05;;;;;;;1.35;0.98;;;9.70;99.90;;;;;;5052415;28;20100;-73
2023/12/14 02:18:31;;;;;;;2.45;1.27;;;9.60;99.90;;;;;;5052067;28;20103;-72
2023/12/14 02:20:57;;;;;;;0.47;0.47;;;9.50;99.90;;;;;;5052669;28;20423;-73
2023/12/14 02:23:26;;;;;;;1.17;1.05;;;9.40;99.90;;;;;;5052337;28;20382;-72
2023/12/14 02:25:52;;;;;;;4.03;1.85;;;9.50;99.90;;;;;;5052299;28;20029;-73
2023/12/14 02:28:18;;;;;;;1.60;1.20;;;9.50;99.90;;;;;;5050317;28;20017;-72
2023/12/14 02:30:44;;;;;;;1.85;0.80;;;9.50;99.90;;;;;;5052234;28;20397;-73
2023/12/14 02:33:11;;;;;;;1.23;1.23;;;9.50;99.90;;;;;;5056719;28;20060;-72
2023/12/14 02:35:36;;;;;;;0.63;0.63;;;9.50;99.90;;;;;;5072048;28;20051;-73
2023/12/14 02:38:02;;;;;;;6.97;3.33;;;9.60;99.90;;;;;;5058866;28;20029;-72
2023/12/14 02:40:28;;;;;;;5.25;3.45;;;9.30;99.90;;;;;;5072817;28;20449;-73
2023/12/14 02:42:54;;;;;;;3.53;1.95;;;9.30;99.90;;;;;;5072214;28;20461;-73
2023/12/14 02:45:20;;;;;;;0.30;0.30;;;9.30;99.90;;;;;;5060509;28;20040;-73
2023/12/14 02:47:47;;;;;;;0.22;0.22;;;9.30;99.90;;;;;;5066814;28;20424;-73
2023/12/14 02:50:13;;;;;;;21.63;9.90;;;9.40;99.90;;;;;;5072347;28;20067;-73
2023/12/14 02:52:39;;;;;;;0.45;0.45;;;9.50;99.90;;;;;;5072466;28;20064;-73
2023/12/14 02:55:05;;;;;;;1.23;1.13;;;9.30;99.90;;;;;;5076108;28;20028;-73
2023/12/14 02:57:31;;;;;;;0.10;0.10;;;9.20;99.90;;;;;;5058066;28;20020;-73
2023/12/14 02:59:57;;;;;;;0.57;0.57;;;9.30;99.90;;;;;;5075404;28;20077;-73
2023/12/14 03:02:23;;;;;;;0.00;0.00;;;9.20;99.90;;;;;;5064631;28;20052;-73
2023/12/14 03:04:48;;;;;;;1.67;0.98;;;9.10;99.90;;;;;;5071283;28;20037;-73
2023/12/14 03:07:14;;;;;;;1.80;1.55;;;9.30;99.90;;;;;;5076026;28;20028;-73
2023/12/14 03:09:44;;;;;;;0.10;0.10;;;9.30;99.90;;;;;;5075495;28;20028;-73
2023/12/14 03:12:10;;;;;;;0.10;0.10;;;9.10;99.90;;;;;;5076117;28;20069;-73
2023/12/14 03:14:36;;;;;;;0.70;0.63;;;9.00;99.90;;;;;;5073997;28;20068;-73
2023/12/14 03:17:02;;;;;;;1.10;1.10;;;9.20;99.90;;;;;;5075347;28;20052;-73
2023/12/14 03:19:28;;;;;;;0.00;0.00;;;9.10;99.90;;;;;;5075726;28;20028;-73
2023/12/14 03:21:54;;;;;;;0.10;0.10;;;9.00;99.90;;;;;;5075310;28;20029;-73
2023/12/14 03:24:20;;;;;;;0.13;0.13;;;9.00;99.90;;;;;;5075334;28;20029;-73
2023/12/14 03:26:46;;;;;;;0.00;0.00;;;9.00;99.90;;;;;;5075428;28;20047;-73
2023/12/14 03:29:12;;;;;;;0.10;0.10;;;9.00;99.90;;;;;;5075070;28;20024;-74
2023/12/14 03:31:39;;;;;;;0.00;0.00;;;9.00;99.90;;;;;;5075311;28;20028;-73
2023/12/14 03:34:05;;;;;;;0.00;0.00;;;8.90;99.90;;;;;;5074045;28;20099;-73
2023/12/14 03:36:31;;;;;;;0.00;0.00;;;8.90;99.90;;;;;;5065193;28;20112;-73
2023/12/14 03:39:00;;;;;;;0.05;0.05;;;8.90;99.90;;;;;;5071186;28;20032;-73
2023/12/14 03:41:26;;;;;;;0.38;0.38;;;9.00;99.90;;;;;;5057411;28;20362;-73
2023/12/14 03:43:52;;;;;;;2.22;2.05;;;9.00;99.90;;;;;;5074572;28;20043;-73
2023/12/14 03:46:18;;;;;;;0.10;0.10;;;9.10;99.90;;;;;;5075064;28;20397;-73
2023/12/14 03:48:43;;;;;;;0.38;0.38;;;8.90;99.90;;;;;;5074851;28;20522;-73
2023/12/14 03:51:09;;;;;;;0.10;0.10;;;8.90;99.90;;;;;;5074764;28;20422;-73
2023/12/14 03:53:35;;;;;;;0.93;0.65;;;8.80;99.90;;;;;;5064363;28;20032;-73
2023/12/14 03:56:01;;;;;;;3.92;0.47;;;8.90;99.90;;;;;;5071089;28;20028;-73
2023/12/14 03:58:26;;;;;;;1.92;0.65;;;8.90;99.90;;;;;;5074721;28;20385;-73
2023/12/14 04:00:52;;;;;;;0.25;0.25;;;8.80;99.90;;;;;;5073069;28;20358;-73
2023/12/14 04:03:18;;;;;;;0.30;0.30;;;8.90;99.90;;;;;;5073147;28;20043;-73
2023/12/14 04:05:44;;;;;;;0.30;0.30;;;8.90;99.90;;;;;;5074598;28;20115;-73
2023/12/14 04:08:10;;;;;;;0.28;0.20;;;8.90;99.90;;;;;;5074742;28;20028;-73
2023/12/14 04:10:36;;;;;;;0.82;0.82;;;9.00;99.90;;;;;;5074502;28;20033;-73
2023/12/14 04:13:02;;;;;;;0.20;0.20;;;9.10;99.90;;;;;;5074159;28;20108;-73
2023/12/14 04:15:31;;;;;;;0.00;0.00;;;9.10;99.90;;;;;;5074589;28;20082;-73
2023/12/14 04:17:57;;;;;;;1.08;0.75;;;9.10;99.90;;;;;;5074651;28;20428;-73
2023/12/14 04:20:23;;;;;;;0.03;0.03;;;9.10;99.90;;;;;;5074315;28;20023;-73
2023/12/14 04:22:50;;;;;;;0.00;0.00;;;9.10;99.90;;;;;;5074275;28;20033;-73
2023/12/14 04:25:16;;;;;;;1.60;1.50;;;9.20;99.90;;;;;;5073888;28;20037;-72
2023/12/14 04:27:42;;;;;;;0.30;0.30;;;9.10;99.90;;;;;;5073950;28;20483;-73
2023/12/14 04:30:11;;;;;;;2.83;1.45;;;9.20;99.90;;;;;;5074127;28;20052;-73
2023/12/14 04:32:38;;;;;;;0.45;0.45;;;9.10;99.90;;;;;;5073124;28;20153;-73
2023/12/14 04:35:05;;;;;;;3.10;0.73;;;9.10;99.90;;;;;;5073828;28;20027;-73
2023/12/14 04:37:31;;;;;;;2.08;1.98;;;9.20;99.90;;;;;;5059743;28;20081;-73
2023/12/14 04:39:57;;;;;;;0.03;0.03;;;9.00;99.90;;;;;;5072492;28;20115;-73
2023/12/14 04:42:23;;;;;;;0.70;0.65;;;9.10;99.90;;;;;;5073531;28;20033;-73
2023/12/14 04:44:49;;;;;;;0.20;0.20;;;9.00;99.90;;;;;;5073853;28;20024;-73
2023/12/14 04:47:15;;;;;;;0.88;0.47;;;9.00;99.90;;;;;;5066302;28;20029;-73
2023/12/14 04:49:42;;;;;;;2.95;0.50;;;9.00;99.90;;;;;;5073679;28;20039;-73
2023/12/14 04:52:08;;;;;;;0.30;0.30;;;8.90;99.90;;;;;;5072242;28;20040;-72
2023/12/14 04:54:37;;;;;;;1.38;1.08;;;8.80;99.90;;;;;;5073409;28;20024;-73
2023/12/14 04:57:04;;;;;;;0.08;0.08;;;8.70;99.90;;;;;;5073196;28;20031;-72
2023/12/14 04:59:29;;;;;;;0.40;0.40;;;8.70;99.90;;;;;;5073507;28;20017;-73
2023/12/14 05:01:55;;;;;;;0.00;0.00;;;8.70;99.90;;;;;;5072055;28;20034;-72
2023/12/14 05:04:21;;;;;;;0.45;0.45;;;8.70;99.90;;;;;;5073032;28;20032;-73
2023/12/14 05:06:47;;;;;;;0.05;0.05;;;8.60;99.90;;;;;;5069785;28;20029;-73
2023/12/14 05:09:13;;;;;;;0.10;0.10;;;8.80;99.90;;;;;;5065170;28;20047;-73
2023/12/14 05:11:42;;;;;;;0.38;0.38;;;8.70;99.90;;;;;;5071854;28;20017;-73
2023/12/14 05:14:08;;;;;;;0.15;0.15;;;8.60;99.90;;;;;;5072870;28;20020;-73
2023/12/14 05:16:33;;;;;;;0.25;0.25;;;8.60;99.90;;;;;;5072395;28;20109;-73
2023/12/14 05:18:59;;;;;;;1.13;1.08;;;8.60;99.90;;;;;;5073058;28;20024;-73
2023/12/14 05:21:26;;;;;;;0.80;0.80;;;8.70;99.90;;;;;;5072932;28;20032;-73
2023/12/14 05:23:51;;;;;;;0.10;0.10;;;8.70;99.90;;;;;;5071933;28;20028;-73
2023/12/14 05:26:17;;;;;;;3.25;0.95;;;8.90;99.90;;;;;;5071292;28;20040;-73
2023/12/14 05:28:43;;;;;;;2.33;1.35;;;8.60;99.90;;;;;;5072819;28;20021;-73
2023/12/14 05:31:09;;;;;;;0.00;0.00;;;8.60;99.90;;;;;;5072950;28;20130;-73
2023/12/14 05:33:39;;;;;;;0.57;0.57;;;8.50;99.90;;;;;;5071792;28;20050;-73
2023/12/14 05:36:10;;;;;;;0.15;0.15;;;8.50;99.90;;;;;;5066455;28;20025;-73
2023/12/14 05:38:40;;;;;;;0.10;0.10;;;8.50;99.90;;;;;;5066100;28;20031;-73
2023/12/14 05:41:06;;;;;;;1.88;1.70;;;8.50;99.90;;;;;;5071189;28;20033;-74
2023/12/14 05:43:32;;;;;;;4.07;3.05;;;8.60;99.90;;;;;;5071526;28;20064;-73
2023/12/14 05:45:58;;;;;;;4.63;2.22;;;8.60;99.90;;;;;;5072744;28;20036;-73
2023/12/14 05:48:26;;;;;;;0.63;0.63;;;8.50;99.90;;;;;;5071568;28;20027;-73
2023/12/14 05:50:52;;;;;;;16.98;6.70;;;8.40;99.90;;;;;;5071440;28;20469;-74
2023/12/14 05:53:18;;;;;;;0.00;0.00;;;8.60;99.90;;;;;;5072716;28;20035;-73
2023/12/14 05:55:44;;;;;;;0.68;0.68;;;8.60;99.90;;;;;;5072474;28;20109;-73
2023/12/14 05:58:10;;;;;;;0.40;0.40;;;8.70;99.90;;;;;;5072691;28;20109;-73
2023/12/14 06:00:36;;;;;;;1.23;1.20;;;8.80;99.90;;;;;;5072694;28;20032;-73
2023/12/14 06:03:02;;;;;;;1.40;1.30;;;8.60;99.90;;;;;;5050183;28;20488;-73
2023/12/14 06:05:28;;;;;;;1.30;1.23;;;8.50;99.90;;;;;;5051428;28;20045;-73
2023/12/14 06:07:54;;;;;;;0.10;0.10;;;8.60;99.90;;;;;;5052099;28;20020;-73
2023/12/14 06:10:21;;;;;;;2.28;0.90;;;8.60;99.90;;;;;;5052295;28;20043;-73
2023/12/14 06:12:47;;;;;;;1.27;1.17;;;8.50;99.90;;;;;;5052253;28;20064;-73
2023/12/14 06:15:13;;;;;;;0.75;0.43;;;8.60;99.90;;;;;;5052314;28;20477;-73
2023/12/14 06:17:41;;;;;;;0.00;0.00;;;8.60;99.90;;;;;;5052272;28;20025;-73
2023/12/14 06:20:10;;;;;;;0.00;0.00;;;8.60;99.90;;;;;;5052441;28;20021;-73
2023/12/14 06:22:36;;;;;;;0.15;0.15;;;8.50;99.90;;;;;;5052342;28;20053;-73
2023/12/14 06:25:03;;;;;;;0.43;0.43;;;8.80;99.90;;;;;;5052066;28;20033;-73
2023/12/14 06:27:29;;;;;;;0.10;0.10;;;8.70;99.90;;;;;;5055732;28;20462;-72
2023/12/14 06:29:55;;;;;;;0.00;0.00;;;8.60;99.90;;;;;;5056267;28;20064;-74
2023/12/14 06:32:21;;;;;;;5.82;2.65;;;8.40;99.90;;;;;;5055714;28;20025;-73
2023/12/14 06:34:47;;;;;;;0.00;0.00;;;8.40;99.90;;;;;;5055011;28;20032;-73
2023/12/14 06:37:13;;;;;;;0.00;0.00;;;8.40;99.90;;;;;;5057765;28;20021;-73
2023/12/14 06:39:41;;;;;;;0.10;0.10;;;8.30;99.90;;;;;;5075971;28;20173;-75
2023/12/14 06:42:08;;;;;;;0.10;0.10;;;8.20;99.90;;;;;;5074881;28;20101;-73
2023/12/14 06:44:33;;;;;;;0.00;0.00;;;8.10;99.90;;;;;;5076017;28;20491;-73
2023/12/14 06:46:59;;;;;;;0.05;0.05;;;7.90;99.90;;;;;;5076246;28;20075;-73
2023/12/14 06:49:25;;;;;;;1.98;0.55;;;7.90;99.90;;;;;;5076018;28;20031;-73
2023/12/14 06:51:51;;;;;;;0.10;0.10;;;8.00;99.90;;;;;;5075982;28;20025;-73
2023/12/14 06:54:24;;;;;;;0.20;0.20;;;8.00;99.90;;;;;;5075630;28;20457;-73
2023/12/14 06:56:50;;;;;;;0.00;0.00;;;7.90;99.90;;;;;;5075028;28;20136;-73
2023/12/14 06:59:16;;;;;;;0.10;0.10;;;7.90;99.90;;;;;;5075787;28;20520;-73
2023/12/14 07:01:41;;;;;;;0.00;0.00;;;7.90;99.90;;;;;;5074655;28;20103;-73
2023/12/14 07:04:08;;;;;;;0.43;0.43;;;7.80;99.90;;;;;;5068427;28;20489;-73
2023/12/14 07:06:35;;;;;;;0.10;0.10;;;7.60;99.90;;;;;;5061528;28;20481;-73
2023/12/14 07:09:00;;;;;;;0.00;0.00;;;7.70;99.90;;;;;;5057675;28;20028;-73
2023/12/14 07:11:26;;;;;;;0.00;0.00;;;7.70;99.90;;;;;;5069562;28;20025;-73
2023/12/14 07:13:52;;;;;;;0.00;0.00;;;7.70;99.90;;;;;;5072026;28;20078;-73
2023/12/14 07:16:18;;;;;;;0.00;0.00;;;7.70;99.90;;;;;;5072267;28;20126;-73
2023/12/14 07:18:46;;;;;;;0.05;0.05;;;7.70;99.90;;;;;;5073273;28;20078;-74
2023/12/14 07:21:13;;;;;;;0.47;0.47;;;7.80;99.90;;;;;;5073437;28;20032;-73
2023/12/14 07:23:38;;;;;;;0.00;0.00;;;7.90;99.90;;;;;;5071041;28;20035;-73
2023/12/14 07:26:05;;;;;;;0.00;0.00;;;7.80;99.90;;;;;;5068609;28;20044;-73
2023/12/14 07:28:30;;;;;;;0.00;0.00;;;7.70;99.90;;;;;;5064135;28;20017;-73
2023/12/14 07:30:56;;;;;;;2.42;1.10;;;7.70;99.90;;;;;;5064059;28;20036;-73
2023/12/14 07:33:22;;;;;;;0.10;0.10;;;7.70;99.90;;;;;;5068623;28;20105;-73
2023/12/14 07:35:48;;;;;;;0.00;0.00;;;7.60;99.90;;;;;;5056902;28;20021;-73
2023/12/14 07:38:14;;;;;;;0.00;0.00;;;7.50;99.90;;;;;;5061551;28;20028;-73
2023/12/14 07:40:40;;;;;;;0.10;0.10;;;7.50;99.90;;;;;;5072403;28;20028;-73
2023/12/14 07:43:06;;;;;;;0.10;0.10;;;7.50;99.90;;;;;;5074495;28;20103;-73
2023/12/14 07:45:32;;;;;;;0.00;0.00;;;7.50;99.90;;;;;;5072842;28;20155;-73
2023/12/14 07:47:59;;;;;;;0.00;0.00;;;7.60;99.90;;;;;;5072915;28;20040;-73
2023/12/14 07:50:26;;;;;;;0.10;0.10;;;7.80;99.90;;;;;;5073784;28;20480;-73
2023/12/14 07:52:52;;;;;;;0.00;0.00;;;7.90;99.90;;;;;;5074369;28;20477;-73
2023/12/14 07:55:19;;;;;;;0.00;0.00;;;7.90;99.90;;;;;;5069104;28;20031;-73
2023/12/14 07:57:45;;;;;;;0.00;0.00;;;7.90;99.90;;;;;;5074146;28;20094;-73
2023/12/14 08:00:11;;;;;;;0.00;0.00;;;7.90;99.90;;;;;;5072747;28;20450;-73
2023/12/14 08:02:37;;;;;;;0.00;0.00;;;7.90;99.90;;;;;;5072603;28;20370;-73
2023/12/14 08:05:04;;;;;;;0.22;0.22;;;7.90;99.90;;;;;;5058547;28;20178;-73
2023/12/14 08:07:32;;;;;;;0.10;0.10;;;7.80;99.90;;;;;;5052584;28;20559;-73
2023/12/14 08:09:58;;;;;;;0.00;0.00;;;7.70;99.90;;;;;;5054076;28;20505;-73
2023/12/14 08:12:24;;;;;;;0.00;0.00;;;7.80;99.90;;;;;;5062646;28;20484;-73
2023/12/14 08:14:50;;;;;;;0.00;0.00;;;7.90;99.90;;;;;;5062168;28;20120;-73
2023/12/14 08:17:16;;;;;;;0.00;0.00;;;7.90;99.90;;;;;;5060567;28;20064;-73
2023/12/14 08:19:42;;;;;;;0.00;0.00;;;7.90;99.90;;;;;;5059455;28;20025;-73
2023/12/14 08:22:11;;;;;;;0.00;0.00;;;8.00;99.90;;;;;;5060266;28;20544;-73
2023/12/14 08:24:37;;;;;;;0.00;0.00;;;8.00;99.90;;;;;;5062991;28;20040;-74
2023/12/14 08:27:03;;;;;;;0.00;0.00;;;7.80;99.90;;;;;;5061299;28;20478;-73
2023/12/14 08:29:29;;;;;;;0.00;0.00;;;7.90;99.90;;;;;;5061162;28;20075;-77
2023/12/14 08:31:57;;;;;;;0.00;0.00;;;8.10;99.90;;;;;;5055145;28;20029;-73
2023/12/14 08:34:26;;;;;;;0.00;0.00;;;8.30;99.90;;;;;;5053964;28;20416;-72
2023/12/14 08:36:52;;;;;;;0.70;0.70;;;8.40;99.90;;;;;;5054449;28;20056;-72
2023/12/14 08:39:18;;;;;;;11.00;3.40;;;8.40;99.90;;;;;;5069980;28;20059;-73
2023/12/14 08:41:45;;;;;;;1.08;0.55;;;8.80;99.90;;;;;;5064461;28;20027;-73
2023/12/14 08:44:11;;;;;;;0.10;0.10;;;8.60;99.90;;;;;;5073168;28;20028;-72
2023/12/14 08:46:41;;;;;;;0.00;0.00;;;8.90;99.90;;;;;;5059561;28;20037;-73
2023/12/14 08:49:08;;;;;;;0.10;0.10;;;8.90;99.90;;;;;;5054266;28;20063;-73
2023/12/14 08:51:33;;;;;;;0.10;0.10;;;9.10;99.90;;;;;;5071704;28;20381;-72
2023/12/14 08:53:59;;;;;;;0.05;0.05;;;8.80;99.90;;;;;;5052826;28;20458;-72
2023/12/14 08:56:25;;;;;;;0.00;0.00;;;8.70;99.90;;;;;;5057849;28;20032;-72
2023/12/14 08:58:52;;;;;;;0.00;0.00;;;8.50;99.90;;;;;;5057124;28;20028;-72
2023/12/14 09:01:22;;;;;;;0.10;0.10;;;8.60;99.90;;;;;;5060523;28;20044;-72
2023/12/14 09:03:49;;;;;;;0.00;0.00;;;8.80;99.90;;;;;;5062843;28;20497;-72
2023/12/14 09:06:16;;;;;;;0.00;0.00;;;9.10;99.90;;;;;;5057793;28;20373;-72
2023/12/14 09:08:42;;;;;;;0.00;0.00;;;9.10;99.90;;;;;;5054126;28;20039;-72
2023/12/14 09:11:08;;;;;;;0.47;0.47;;;9.30;99.90;;;;;;5056413;28;20370;-72
2023/12/14 09:13:34;;;;;;;0.63;0.63;;;9.20;99.90;;;;;;5065633;28;20044;-72
2023/12/14 09:16:00;;;;;;;0.60;0.32;;;8.90;99.90;;;;;;5060068;28;20028;-73
2023/12/14 09:18:26;;;;;;;0.08;0.08;;;8.90;99.90;;;;;;5057566;28;20025;-73
2023/12/14 09:20:51;;;;;;;0.17;0.17;;;9.20;99.90;;;;;;5054678;28;20025;-72
2023/12/14 09:23:18;;;;;;;0.40;0.40;;;8.90;99.90;;;;;;5056424;28;20029;-72
2023/12/14 09:25:47;;;;;;;0.80;0.70;;;8.90;99.90;;;;;;5052512;28;20033;-72
2023/12/14 09:28:13;;;;;;;0.00;0.00;;;8.60;99.90;;;;;;5058422;28;20024;-73
2023/12/14 09:30:39;;;;;;;0.98;0.93;;;8.50;99.90;;;;;;5062808;28;20082;-73
2023/12/14 09:33:08;;;;;;;0.10;0.10;;;8.70;99.90;;;;;;5053294;28;20025;-73
2023/12/14 09:35:36;;;;;;;0.00;0.00;;;8.90;99.90;;;;;;5056960;28;20427;-73
2023/12/14 09:38:03;;;;;;;0.00;0.00;;;8.70;99.90;;;;;;5058537;28;20028;-73
2023/12/14 09:40:29;;;;;;;0.08;0.08;;;8.50;99.90;;;;;;5066475;28;20060;-73
2023/12/14 09:42:56;;;;;;;0.00;0.00;;;8.60;99.90;;;;;;5065581;28;20029;-73
2023/12/14 09:45:27;;;;;;;0.00;0.00;;;8.70;99.90;;;;;;5059950;28;20037;-73
2023/12/14 09:47:53;;;;;;;0.00;0.00;;;8.80;99.90;;;;;;5057546;28;20043;-73
2023/12/14 09:50:21;;;;;;;0.00;0.00;;;8.70;99.90;;;;;;5069051;28;20082;-73
2023/12/14 09:52:49;;;;;;;0.00;0.00;;;8.80;99.90;;;;;;5068040;28;20381;-73
2023/12/14 09:55:15;;;;;;;0.10;0.10;;;9.00;99.90;;;;;;5068417;28;20047;-73
2023/12/14 09:57:41;;;;;;;2.05;0.47;;;8.90;99.90;;;;;;5037977;28;20423;-73
2023/12/14 10:00:10;;;;;;;0.43;0.43;;;9.00;99.90;;;;;;5069564;28;20116;-73
2023/12/14 10:02:36;;;;;;;0.00;0.00;;;8.80;99.90;;;;;;5070385;28;20394;-73
2023/12/14 10:05:03;;;;;;;0.00;0.00;;;9.10;99.90;;;;;;5051209;28;20036;-72
2023/12/14 10:07:31;;;;;;;1.15;1.10;;;9.10;99.90;;;;;;5070084;28;20067;-72
2023/12/14 10:10:28;;;;;;;0.10;0.10;;;9.20;99.90;;;;;;5059313;28;20022;-72
2023/12/14 10:12:54;;;;;;;0.10;0.10;;;9.40;99.90;;;;;;5058205;28;20421;-72
2023/12/14 10:15:24;;;;;;;3.47;0.95;;;9.60;99.90;;;;;;5058255;28;20024;-73
2023/12/14 10:17:54;;;;;;;0.00;0.00;;;10.20;99.90;;;;;;5060847;28;20159;-72
2023/12/14 10:20:23;;;;;;;0.10;0.10;;;10.30;99.90;;;;;;5053297;28;20029;-72
2023/12/14 10:22:50;;;;;;;0.63;0.50;;;10.20;99.90;;;;;;5057410;28;20099;-72
2023/12/14 10:25:18;;;;;;;0.80;0.80;;;10.30;99.90;;;;;;5062897;28;20394;-72
2023/12/14 10:27:47;;;;;;;0.08;0.08;;;9.90;99.90;;;;;;5052812;28;20017;-72
2023/12/14 10:30:15;;;;;;;0.03;0.03;;;9.90;99.90;;;;;;5055045;28;20033;-72
2023/12/14 10:32:41;;;;;;;0.00;0.00;;;10.40;99.90;;;;;;5056205;28;20064;-73
2023/12/14 10:35:07;;;;;;;0.00;0.00;;;10.10;99.90;;;;;;5058383;28;20040;-72
2023/12/14 10:37:38;;;;;;;0.08;0.08;;;10.00;99.90;;;;;;5054121;28;20354;-73
2023/12/14 10:40:10;;;;;;;0.00;0.00;;;9.70;99.90;;;;;;5071743;28;20075;-73
2023/12/14 10:42:38;;;;;;;0.10;0.10;;;9.80;99.90;;;;;;5063985;28;20025;-72
2023/12/14 10:45:06;;;;;;;0.52;0.52;;;9.80;99.90;;;;;;5071545;28;20032;-72
2023/12/14 10:47:33;;;;;;;0.40;0.40;;;9.60;99.90;;;;;;5057514;28;20025;-73
2023/12/14 10:50:01;;;;;;;1.02;1.02;;;9.30;99.90;;;;;;5067170;28;20031;-72
2023/12/14 10:52:28;;;;;;;0.10;0.10;;;9.40;99.90;;;;;;5065874;28;20043;-72
2023/12/14 10:55:01;;;;;;;0.20;0.20;;;9.00;99.90;;;;;;5062980;28;20041;-72
2023/12/14 10:57:28;;;;;;;0.57;0.57;;;9.30;99.90;;;;;;5055852;28;20039;-72
2023/12/14 11:00:02;;;;;;;0.00;0.00;;;9.30;99.90;;;;;;5043724;28;20393;-72
2023/12/14 11:02:29;;;;;;;0.60;0.60;;;9.30;99.90;;;;;;5067516;28;20028;-72
2023/12/14 11:05:09;;;;;;;0.05;0.05;;;9.70;99.90;;;;;;5040106;28;20073;-72
2023/12/14 11:07:49;;;;;;;0.10;0.10;;;10.10;99.90;;;;;;5069528;28;20050;-72
2023/12/14 11:10:22;;;;;;;6.93;0.70;;;10.00;99.90;;;;;;5045486;28;20469;-72
2023/12/14 11:13:02;;;;;;;0.65;0.55;;;9.50;99.90;;;;;;5067765;28;20040;-72
2023/12/14 11:15:30;;;;;;;0.03;0.03;;;9.50;99.90;;;;;;5067327;28;20049;-72
2023/12/14 11:18:09;;;;;;;0.00;0.00;;;9.40;99.90;;;;;;5059734;28;20528;-72
2023/12/14 11:20:44;;;;;;;0.00;0.00;;;9.10;99.90;;;;;;5065020;28;20028;-72
2023/12/14 11:23:13;;;;;;;0.00;0.00;;;9.10;99.90;;;;;;5072404;28;20097;-72
2023/12/14 11:25:40;;;;;;;1.85;0.30;;;9.00;99.90;;;;;;5069114;28;20025;-72
2023/12/14 11:28:07;;;;;;;0.05;0.05;;;8.80;99.90;;;;;;5072081;28;20381;-73
2023/12/14 11:30:35;;;;;;;0.10;0.10;;;8.60;99.90;;;;;;5064495;28;20358;-72
2023/12/14 11:33:01;;;;;;;0.10;0.10;;;8.50;99.90;;;;;;5060308;28;20083;-72
2023/12/14 11:35:26;;;;;;;0.25;0.25;;;8.60;99.90;;;;;;5056264;28;20025;-73
2023/12/14 11:37:52;;;;;;;0.17;0.17;;;8.90;99.90;;;;;;5057039;28;20507;-74
2023/12/14 11:40:22;;;;;;;0.00;0.00;;;9.00;99.90;;;;;;5066140;28;20128;-73
2023/12/14 11:43:01;;;;;;;0.05;0.05;;;8.80;99.90;;;;;;5066812;28;20070;-72
2023/12/14 11:45:27;;;;;;;0.22;0.22;;;8.60;99.90;;;;;;5061529;28;20351;-72
2023/12/14 11:47:53;;;;;;;0.10;0.10;;;8.80;99.90;;;;;;5072120;28;20036;-72
2023/12/14 11:50:20;;;;;;;0.20;0.20;;;8.70;99.90;;;;;;5060465;28;20031;-73
2023/12/14 11:52:46;;;;;;;9.88;0.55;;;9.10;99.90;;;;;;5052250;28;20021;-71
2023/12/14 11:55:12;;;;;;;0.20;0.20;;;8.90;99.90;;;;;;5054259;28;20021;-72
2023/12/14 11:57:38;;;;;;;0.57;0.40;;;8.60;99.90;;;;;;5054363;28;20037;-72
2023/12/14 12:00:06;;;;;;;0.20;0.20;;;8.70;99.90;;;;;;5053957;28;20195;-72
2023/12/14 12:02:34;;;;;;;0.10;0.10;;;8.70;99.90;;;;;;5057918;28;20363;-71
2023/12/14 12:04:59;;;;;;;0.13;0.13;;;8.60;99.90;;;;;;5053910;28;20064;-72
2023/12/14 12:07:25;;;;;;;0.45;0.45;;;8.60;99.90;;;;;;5051774;28;20485;-72
2023/12/14 12:09:52;;;;;;;0.00;0.00;;;8.60;99.90;;;;;;5050031;28;20382;-72
2023/12/14 12:12:17;;;;;;;10.23;2.65;;;8.60;99.90;;;;;;5052681;28;20033;-73
2023/12/14 12:14:43;;;;;;;19.80;5.45;;;8.60;99.90;;;;;;5054204;28;20545;-73
2023/12/14 12:17:10;;;;;;;3.05;0.90;;;8.60;99.90;;;;;;5054278;28;20025;-72
2023/12/14 12:19:37;;;;;;;0.00;0.00;;;8.60;99.90;;;;;;5054060;28;20066;-72
2023/12/14 12:22:04;;;;;;;0.00;0.00;;;8.90;99.90;;;;;;5054178;28;20122;-72
2023/12/14 12:24:30;;;;;;;0.00;0.00;;;9.00;99.90;;;;;;5050869;28;20158;-72
2023/12/14 12:26:56;;;;;;;0.10;0.10;;;9.20;99.90;;;;;;5052437;28;20041;-72
2023/12/14 12:29:23;;;;;;;0.10;0.10;;;9.10;99.90;;;;;;5052982;28;20027;-72
2023/12/14 12:31:49;;;;;;;1.55;0.52;;;9.20;99.90;;;;;;5053727;28;20032;-73
2023/12/14 12:34:15;;;;;;;0.30;0.10;;;9.10;99.90;;;;;;5053745;28;20181;-72
2023/12/14 12:36:41;;;;;;;0.00;0.00;;;9.20;99.90;;;;;;5052051;28;20032;-73
2023/12/14 12:39:08;;;;;;;0.25;0.25;;;9.50;99.90;;;;;;5070699;28;20476;-73
2023/12/14 12:41:36;;;;;;;0.90;0.85;;;9.40;99.90;;;;;;5073584;28;20051;-72
2023/12/14 12:44:05;;;;;;;1.83;1.02;;;9.30;99.90;;;;;;5073464;28;20552;-72
2023/12/14 12:46:35;;;;;;;0.73;0.73;;;9.00;99.90;;;;;;5073599;28;20052;-72
2023/12/14 12:49:02;;;;;;;0.00;0.00;;;9.10;99.90;;;;;;5073672;28;20040;-73
2023/12/14 12:51:29;;;;;;;3.38;1.85;;;9.20;99.90;;;;;;5073683;28;20042;-73
2023/12/14 12:53:57;;;;;;;1.45;1.35;;;9.40;99.90;;;;;;5073502;28;20029;-73